Terminal Aerodrome Forecast
Issued by NWS

Home | Current Version | Previous Version | Text Only | Print | Product List | Glossary On
Versions: 1 2 3 4 5 6 7 8 9 10 11 12 13 14
000
FTUS42 KGSP 212320
TAFAND
TAF
KAND 212320Z 2200/2224 VRB03KT P6SM SCT250
     FM221600 24008KT P6SM SCT060 PROB30 2220/2222 4SM -TSRA
      BKN060CB=

USA.gov is the U.S. government's official web portal to all federal, state and local government web resources and services.